Time;durP1;ratioP1;P1;durP2;ratioP2;P2;SDS_P1;SDS_P2;PMS_P1;PMS_P2;Temp;Humidity;BMP_temperature;BMP_pressure;BME280_temperature;BME280_humidity;BME280_pressure;Samples;Min_cycle;Max_cycle;Signal;HPM_P1;HPM_P2
2022/04/13 00:00:49;;;;;;;19.83;16.50;;;13.70;83.90;;;;;;4972422;28;20496;-95
2022/04/13 00:03:15;;;;;;;20.23;15.40;;;13.70;84.00;;;;;;4972807;28;20035;-93
2022/04/13 00:05:44;;;;;;;20.17;15.98;;;13.80;83.60;;;;;;4952197;28;20400;-93
2022/04/13 00:08:20;;;;;;;25.15;18.58;;;13.80;83.50;;;;;;4964283;28;20055;-93
2022/04/13 00:10:48;;;;;;;23.08;17.10;;;13.70;84.00;;;;;;4947539;28;20039;-93
2022/04/13 00:13:20;;;;;;;19.65;16.88;;;13.80;83.80;;;;;;4955191;28;20039;-93
2022/04/13 00:15:56;;;;;;;19.48;16.95;;;13.80;83.80;;;;;;4972120;28;20398;-92
2022/04/13 00:18:22;;;;;;;23.98;17.08;;;13.80;84.00;;;;;;4955780;28;20039;-94
2022/04/13 00:20:57;;;;;;;20.85;17.05;;;13.80;83.90;;;;;;4956283;28;20043;-94
2022/04/13 00:23:46;;;;;;;23.88;19.83;;;13.80;84.00;;;;;;4959092;28;20055;-93
2022/04/13 00:26:12;;;;;;;23.33;17.63;;;13.80;84.20;;;;;;4911410;29;20068;-93
2022/04/13 00:28:47;;;;;;;19.60;16.08;;;13.70;84.50;;;;;;4969188;28;20491;-94
2022/04/13 00:31:15;;;;;;;25.95;19.42;;;13.70;84.60;;;;;;4959875;28;20035;-94
2022/04/13 00:33:53;;;;;;;22.00;18.10;;;13.70;84.40;;;;;;4956042;28;20504;-93
2022/04/13 00:36:23;;;;;;;18.55;16.15;;;13.60;84.60;;;;;;4954391;28;20034;-93
2022/04/13 00:38:48;;;;;;;22.87;17.80;;;13.60;84.90;;;;;;4959455;28;20125;-92
2022/04/13 00:41:23;;;;;;;19.40;15.57;;;13.60;84.60;;;;;;4955835;28;20127;-92
2022/04/13 00:44:21;;;;;;;21.20;16.05;;;13.70;84.50;;;;;;4952249;28;20050;-93
2022/04/13 00:46:47;;;;;;;24.55;16.20;;;13.70;84.30;;;;;;4914008;28;20045;-92
2022/04/13 00:49:14;;;;;;;19.48;16.67;;;13.70;84.30;;;;;;4959276;28;20038;-93
2022/04/13 00:51:40;;;;;;;19.83;15.95;;;13.70;84.20;;;;;;4953364;28;20121;-93
2022/04/13 00:54:13;;;;;;;29.20;17.30;;;13.80;83.90;;;;;;4971250;28;20564;-92
2022/04/13 00:56:43;;;;;;;26.45;18.35;;;13.80;83.50;;;;;;4956059;28;20058;-94
2022/04/13 00:59:18;;;;;;;23.48;16.27;;;13.70;83.60;;;;;;4975335;28;20050;-94
2022/04/13 01:01:51;;;;;;;23.33;17.23;;;13.60;83.60;;;;;;4967737;28;20038;-93
2022/04/13 01:04:17;;;;;;;20.55;16.52;;;13.50;83.80;;;;;;4975965;28;20051;-94
2022/04/13 01:06:49;;;;;;;23.55;16.77;;;13.50;83.60;;;;;;4957853;28;20528;-93
2022/04/13 01:09:23;;;;;;;22.75;15.55;;;13.40;83.90;;;;;;4953516;28;20039;-92
2022/04/13 01:11:49;;;;;;;18.50;15.00;;;13.40;83.70;;;;;;4975661;28;20042;-93
2022/04/13 01:14:21;;;;;;;21.50;17.63;;;13.50;83.40;;;;;;4956607;28;20035;-93
2022/04/13 01:16:46;;;;;;;22.63;17.55;;;13.40;83.10;;;;;;4979225;28;20091;-93
2022/04/13 01:19:23;;;;;;;20.48;15.40;;;13.40;83.00;;;;;;4965036;28;20096;-94
2022/04/13 01:22:05;;;;;;;25.48;16.35;;;13.30;82.80;;;;;;4957311;28;20058;-93
2022/04/13 01:24:32;;;;;;;18.70;14.73;;;13.30;82.80;;;;;;4958816;28;20042;-93
2022/04/13 01:27:04;;;;;;;17.58;15.63;;;13.30;82.30;;;;;;4957086;28;20392;-94
2022/04/13 01:29:30;;;;;;;18.73;14.70;;;13.30;82.70;;;;;;4956518;28;20038;-93
2022/04/13 01:31:56;;;;;;;25.25;16.67;;;13.30;82.70;;;;;;4957529;28;20035;-93
2022/04/13 01:34:25;;;;;;;22.00;16.17;;;13.30;82.90;;;;;;4956328;28;20058;-94
2022/04/13 01:36:57;;;;;;;19.65;15.75;;;13.20;82.60;;;;;;4955179;28;20035;-93
2022/04/13 01:39:29;;;;;;;17.25;15.20;;;13.20;82.40;;;;;;4975261;28;20057;-93
2022/04/13 01:42:00;;;;;;;21.02;15.82;;;13.20;82.90;;;;;;4955051;28;20047;-92
2022/04/13 01:44:32;;;;;;;25.30;18.08;;;13.20;83.30;;;;;;4958026;28;20118;-92
2022/04/13 01:46:58;;;;;;;19.42;15.27;;;13.10;83.00;;;;;;4956388;28;20050;-94
2022/04/13 01:49:27;;;;;;;19.23;17.00;;;13.10;83.30;;;;;;4956941;28;20038;-93
2022/04/13 01:51:55;;;;;;;25.40;16.17;;;13.20;83.40;;;;;;4956566;28;20034;-93
2022/04/13 01:54:24;;;;;;;23.23;16.83;;;13.20;83.70;;;;;;4956660;28;20955;-92
2022/04/13 01:56:50;;;;;;;27.50;17.58;;;13.20;83.70;;;;;;4973282;28;20037;-94
2022/04/13 01:59:15;;;;;;;21.58;17.25;;;13.20;84.00;;;;;;4972704;28;20039;-94
2022/04/13 02:01:51;;;;;;;20.85;16.63;;;13.20;84.20;;;;;;4957758;28;20042;-93
2022/04/13 02:04:22;;;;;;;21.50;17.90;;;13.20;84.40;;;;;;4973776;28;20517;-92
2022/04/13 02:06:48;;;;;;;24.35;19.08;;;13.30;84.50;;;;;;4973163;28;20070;-93
2022/04/13 02:09:18;;;;;;;24.92;18.33;;;13.20;84.60;;;;;;4957082;28;20086;-91
2022/04/13 02:11:50;;;;;;;25.10;19.15;;;13.20;85.20;;;;;;4957293;28;20054;-92
2022/04/13 02:14:16;;;;;;;22.63;18.25;;;13.20;85.50;;;;;;4955911;28;20031;-92
2022/04/13 02:16:42;;;;;;;22.13;17.65;;;13.20;85.80;;;;;;4975293;28;20035;-93
2022/04/13 02:19:12;;;;;;;27.42;21.15;;;13.10;85.90;;;;;;4975047;28;21471;-93
2022/04/13 02:21:44;;;;;;;22.63;17.92;;;13.10;86.00;;;;;;4956031;28;20031;-94
2022/04/13 02:24:09;;;;;;;18.75;16.30;;;13.10;86.20;;;;;;4971236;28;20138;-93
2022/04/13 02:26:35;;;;;;;21.75;19.38;;;13.10;86.10;;;;;;4956516;28;20416;-92
2022/04/13 02:29:01;;;;;;;22.42;18.15;;;13.10;86.30;;;;;;4955279;28;20047;-94
2022/04/13 02:34:19;;;;;;;24.33;18.40;;;13.10;86.30;;;;;;4952184;28;20051;-93
2022/04/13 02:37:01;;;;;;;25.60;20.85;;;13.10;86.20;;;;;;4974840;28;20038;-95
2022/04/13 02:39:30;;;;;;;27.50;21.02;;;13.20;86.20;;;;;;4956120;28;20039;-93
2022/04/13 02:41:55;;;;;;;25.83;19.85;;;13.10;86.40;;;;;;4968600;28;20027;-94
2022/04/13 02:44:21;;;;;;;23.27;19.13;;;13.00;86.40;;;;;;4954338;28;20062;-92
2022/04/13 02:46:52;;;;;;;22.02;19.60;;;13.00;86.20;;;;;;4963631;28;20030;-91
2022/04/13 02:49:21;;;;;;;24.10;18.92;;;13.00;85.90;;;;;;4956389;28;20097;-91
2022/04/13 02:51:47;;;;;;;25.30;18.83;;;13.00;85.70;;;;;;4971491;28;20491;-93
2022/04/13 02:54:12;;;;;;;24.13;18.70;;;12.90;85.20;;;;;;4952116;28;20035;-93
2022/04/13 02:56:38;;;;;;;28.95;21.42;;;12.80;85.30;;;;;;4974798;28;20525;-91
2022/04/13 02:59:12;;;;;;;23.02;18.55;;;12.60;85.10;;;;;;4956902;28;20057;-93
2022/04/13 03:01:43;;;;;;;28.73;23.23;;;12.50;85.50;;;;;;4968735;28;20487;-93
2022/04/13 03:04:09;;;;;;;29.00;23.13;;;12.40;85.40;;;;;;4955366;28;20049;-92
2022/04/13 03:06:44;;;;;;;30.83;24.17;;;12.20;86.30;;;;;;4970307;28;20102;-92
2022/04/13 03:09:19;;;;;;;25.30;21.17;;;12.10;86.80;;;;;;4956840;28;20030;-95
2022/04/13 03:11:50;;;;;;;23.73;21.08;;;12.10;86.90;;;;;;4971715;28;20031;-91
2022/04/13 03:14:23;;;;;;;29.35;20.52;;;12.10;86.60;;;;;;4972981;28;20039;-93
2022/04/13 03:16:50;;;;;;;27.08;19.50;;;12.10;86.40;;;;;;4974008;28;20118;-94
2022/04/13 03:19:22;;;;;;;25.75;20.63;;;12.10;86.60;;;;;;4957218;28;20125;-93
2022/04/13 03:21:51;;;;;;;24.65;18.80;;;12.10;86.50;;;;;;4974354;28;20027;-93
2022/04/13 03:24:17;;;;;;;22.98;17.60;;;12.20;86.20;;;;;;4953111;28;20157;-93
2022/04/13 03:26:50;;;;;;;23.83;18.25;;;12.30;85.60;;;;;;4976999;28;20146;-93
2022/04/13 03:32:16;;;;;;;23.15;18.63;;;12.40;84.50;;;;;;4917185;29;20032;-91
2022/04/13 03:34:47;;;;;;;21.33;17.88;;;12.40;84.10;;;;;;4915012;29;20058;-94
2022/04/13 03:37:13;;;;;;;23.92;18.42;;;12.40;84.20;;;;;;4941686;28;20151;-93
2022/04/13 03:39:45;;;;;;;26.23;20.30;;;12.30;84.20;;;;;;4975311;28;20075;-93
2022/04/13 03:42:10;;;;;;;25.92;19.30;;;12.30;84.40;;;;;;4957832;28;20034;-93
2022/04/13 03:44:42;;;;;;;29.88;19.63;;;12.20;84.40;;;;;;4957400;28;20043;-93
2022/04/13 03:47:19;;;;;;;28.23;19.67;;;12.10;84.80;;;;;;4957719;28;20098;-93
2022/04/13 03:49:45;;;;;;;27.67;19.35;;;12.10;84.80;;;;;;4968809;28;20046;-94
2022/04/13 03:52:10;;;;;;;24.98;17.23;;;12.10;84.70;;;;;;4974097;28;20122;-93
2022/04/13 04:00:26;;;;;;;23.30;17.75;;;12.10;83.70;;;;;;4967641;28;20062;-79
2022/04/13 04:02:52;;;;;;;29.98;19.75;;;12.10;83.80;;;;;;4967547;28;20086;-82
2022/04/13 04:05:17;;;;;;;25.20;20.05;;;12.00;84.00;;;;;;4969551;28;20038;-84
2022/04/13 04:07:44;;;;;;;20.63;16.58;;;11.90;84.50;;;;;;4970488;28;20562;-85
2022/04/13 04:10:10;;;;;;;23.02;17.48;;;11.90;84.80;;;;;;4967309;28;20394;-83
2022/04/13 04:12:41;;;;;;;23.65;18.13;;;11.90;84.30;;;;;;4968404;28;20387;-83
2022/04/13 04:15:08;;;;;;;;;;;11.90;84.80;;;;;;4943169;28;20118;-84
2022/04/13 04:17:34;;;;;;;27.77;18.58;;;11.80;84.90;;;;;;4970341;28;19957;-83
2022/04/13 04:20:00;;;;;;;26.92;18.80;;;11.80;85.10;;;;;;4973546;28;20446;-84
2022/04/13 04:22:26;;;;;;;25.40;18.48;;;11.90;85.20;;;;;;4952279;28;20061;-83
2022/04/13 04:24:53;;;;;;;25.45;17.58;;;11.80;85.70;;;;;;4949062;28;20479;-83
2022/04/13 04:27:19;;;;;;;24.55;17.85;;;11.90;85.10;;;;;;4968263;28;20067;-84
2022/04/13 04:29:45;;;;;;;20.35;16.83;;;11.90;85.30;;;;;;4964136;28;20063;-84
2022/04/13 04:32:10;;;;;;;21.95;18.77;;;11.90;85.70;;;;;;4967572;28;20035;-83
2022/04/13 04:34:36;;;;;;;28.73;20.77;;;11.90;86.20;;;;;;4971249;28;20044;-82
2022/04/13 04:37:01;;;;;;;25.05;19.05;;;11.90;86.20;;;;;;4966268;28;20380;-83
2022/04/13 04:39:28;;;;;;;27.90;22.02;;;11.90;86.50;;;;;;4947474;28;20083;-81
2022/04/13 04:41:54;;;;;;;24.88;19.25;;;11.90;86.50;;;;;;4967963;28;20117;-82
2022/04/13 04:44:20;;;;;;;33.40;22.73;;;11.80;87.00;;;;;;4964717;28;20126;-83
2022/04/13 04:46:45;;;;;;;25.98;17.83;;;11.80;87.30;;;;;;4969649;28;20438;-84
2022/04/13 04:49:11;;;;;;;23.40;19.35;;;11.80;87.10;;;;;;4948438;28;20463;-84
2022/04/13 04:51:37;;;;;;;30.70;22.10;;;11.90;87.00;;;;;;4943567;28;20779;-81
2022/04/13 04:54:03;;;;;;;43.40;24.98;;;11.90;87.70;;;;;;4963912;28;20039;-82
2022/04/13 04:56:29;;;;;;;39.85;26.83;;;12.00;88.00;;;;;;4944183;28;20070;-82
2022/04/13 04:58:56;;;;;;;30.52;23.92;;;12.00;88.00;;;;;;4964504;28;20087;-77
2022/04/13 05:01:21;;;;;;;49.58;30.58;;;12.00;88.20;;;;;;4952964;28;20043;-76
2022/04/13 05:03:50;;;;;;;46.75;27.83;;;11.90;89.80;;;;;;4967458;28;20522;-76
2022/04/13 05:06:18;;;;;;;42.28;29.38;;;11.90;90.00;;;;;;4968935;28;20042;-77
2022/04/13 05:08:43;;;;;;;39.15;23.88;;;11.80;90.00;;;;;;4968533;28;20039;-77
2022/04/13 05:11:09;;;;;;;42.58;27.27;;;11.90;90.10;;;;;;4972564;28;20045;-75
2022/04/13 05:13:35;;;;;;;40.67;25.30;;;11.90;89.70;;;;;;4965816;28;20031;-76
2022/04/13 05:16:01;;;;;;;43.03;25.85;;;12.10;89.00;;;;;;4966907;28;20039;-76
2022/04/13 05:18:26;;;;;;;34.50;22.23;;;12.10;89.00;;;;;;4956205;28;20388;-76
2022/04/13 05:20:53;;;;;;;33.67;22.15;;;12.10;88.50;;;;;;4965474;28;20085;-74
2022/04/13 05:23:18;;;;;;;25.67;19.40;;;12.20;88.20;;;;;;4965910;28;20471;-81
2022/04/13 05:25:46;;;;;;;23.63;20.05;;;12.30;87.90;;;;;;4969881;28;20051;-75
2022/04/13 05:28:12;;;;;;;25.38;19.23;;;12.40;87.40;;;;;;4958936;28;20033;-81
2022/04/13 05:30:38;;;;;;;30.90;21.25;;;12.40;86.90;;;;;;4961382;28;20047;-74
2022/04/13 05:33:05;;;;;;;25.60;20.13;;;12.50;86.50;;;;;;4969538;28;20035;-74
2022/04/13 05:35:31;;;;;;;41.90;24.63;;;12.50;86.60;;;;;;4950017;28;20047;-74
2022/04/13 05:37:57;;;;;;;31.75;25.60;;;12.30;86.20;;;;;;4972983;28;20039;-74
2022/04/13 05:40:24;;;;;;;32.03;25.23;;;11.90;87.50;;;;;;4943823;28;20043;-81
2022/04/13 05:42:50;;;;;;;35.45;23.80;;;11.80;88.60;;;;;;4970131;28;20064;-83
2022/04/13 05:45:17;;;;;;;33.10;23.02;;;11.70;88.40;;;;;;4949046;28;20518;-82
2022/04/13 05:47:43;;;;;;;31.77;23.77;;;11.70;88.50;;;;;;4970188;28;20039;-82
2022/04/13 05:50:11;;;;;;;40.45;24.75;;;11.60;89.00;;;;;;4966174;28;20428;-75
2022/04/13 05:52:36;;;;;;;33.30;24.75;;;11.50;90.00;;;;;;4969203;28;20037;-74
2022/04/13 05:55:03;;;;;;;31.67;23.70;;;11.50;90.50;;;;;;4948978;28;20039;-75
2022/04/13 05:57:29;;;;;;;28.15;19.38;;;11.50;90.50;;;;;;4958726;28;20117;-74
2022/04/13 05:59:55;;;;;;;31.92;24.38;;;11.60;90.60;;;;;;4961738;28;20074;-75
2022/04/13 06:02:21;;;;;;;27.73;20.80;;;11.80;90.30;;;;;;4946804;28;20060;-75
2022/04/13 06:04:46;;;;;;;41.55;25.08;;;11.90;90.40;;;;;;4959247;28;20043;-74
2022/04/13 06:07:12;;;;;;;41.88;28.23;;;11.90;90.50;;;;;;4965142;28;20118;-74
2022/04/13 06:09:38;;;;;;;42.15;23.95;;;11.90;90.60;;;;;;4971765;28;20356;-80
2022/04/13 06:12:04;;;;;;;31.98;21.42;;;12.00;91.00;;;;;;4965505;28;20039;-77
2022/04/13 06:14:30;;;;;;;37.20;23.65;;;12.10;90.70;;;;;;4968960;28;20045;-78
2022/04/13 06:16:56;;;;;;;38.40;22.88;;;12.10;90.80;;;;;;4950938;28;20035;-77
2022/04/13 06:19:21;;;;;;;35.92;23.88;;;12.20;90.90;;;;;;4965256;28;20051;-76
2022/04/13 06:21:47;;;;;;;32.83;20.77;;;12.30;90.80;;;;;;4960321;28;20500;-78
2022/04/13 06:24:13;;;;;;;33.13;20.35;;;12.40;90.60;;;;;;4951628;28;20039;-77
2022/04/13 06:26:38;;;;;;;46.03;24.63;;;12.40;90.50;;;;;;4956124;28;20118;-81
2022/04/13 06:29:04;;;;;;;34.35;19.92;;;12.50;90.40;;;;;;4938528;28;20027;-77
2022/04/13 06:31:30;;;;;;;36.92;19.05;;;12.50;90.40;;;;;;4959101;28;20041;-79
2022/04/13 06:33:56;;;;;;;34.35;20.23;;;12.60;90.50;;;;;;4960438;28;20102;-78
2022/04/13 06:36:22;;;;;;;36.90;19.17;;;12.60;90.40;;;;;;4969959;28;20047;-78
2022/04/13 06:38:47;;;;;;;28.73;18.40;;;12.70;90.40;;;;;;4965587;28;20047;-79
2022/04/13 06:41:14;;;;;;;29.73;19.48;;;12.70;90.40;;;;;;4974133;28;20030;-78
2022/04/13 06:43:40;;;;;;;31.40;20.05;;;12.80;90.40;;;;;;4956867;28;20115;-78
2022/04/13 06:46:06;;;;;;;34.50;21.20;;;12.80;90.30;;;;;;4953714;28;20039;-80
2022/04/13 06:48:32;;;;;;;41.25;23.98;;;12.80;90.40;;;;;;4974344;28;20059;-80
2022/04/13 06:50:59;;;;;;;37.47;23.05;;;12.70;90.70;;;;;;4957044;28;20061;-80
2022/04/13 06:53:26;;;;;;;39.60;24.00;;;12.60;90.80;;;;;;4971435;28;20031;-80
2022/04/13 06:55:52;;;;;;;37.75;23.42;;;12.40;91.30;;;;;;4947887;28;20065;-80
2022/04/13 06:58:26;;;;;;;40.08;22.73;;;12.40;91.50;;;;;;4958113;28;20106;-89
2022/04/13 07:00:52;;;;;;;33.25;20.83;;;12.20;91.90;;;;;;4952041;28;20086;-83
2022/04/13 07:03:18;;;;;;;37.00;21.08;;;12.20;92.20;;;;;;4956302;29;20411;-82
2022/04/13 07:05:43;;;;;;;38.80;23.45;;;12.20;92.40;;;;;;4955704;28;20066;-82
2022/04/13 07:08:09;;;;;;;45.08;26.35;;;12.30;92.20;;;;;;4964753;28;20027;-86
2022/04/13 07:10:35;;;;;;;41.90;24.98;;;12.20;92.50;;;;;;4964331;28;20466;-85
2022/04/13 07:13:01;;;;;;;34.45;22.48;;;12.20;92.60;;;;;;4975617;28;20122;-87
2022/04/13 07:15:27;;;;;;;36.22;22.45;;;12.20;92.50;;;;;;4993224;28;20506;-86
2022/04/13 07:17:54;;;;;;;36.65;22.02;;;12.20;92.60;;;;;;4995405;28;20066;-86
2022/04/13 07:20:20;;;;;;;28.27;18.05;;;12.20;92.60;;;;;;4977527;28;20041;-86
2022/04/13 07:22:52;;;;;;;28.17;19.20;;;12.30;92.70;;;;;;4978086;28;20129;-87
2022/04/13 07:25:19;;;;;;;27.48;17.17;;;12.40;92.30;;;;;;4995194;28;21045;-86
2022/04/13 07:27:46;;;;;;;31.65;19.40;;;12.50;92.20;;;;;;4995143;28;20115;-86
2022/04/13 07:30:13;;;;;;;24.92;16.52;;;12.60;92.00;;;;;;4994625;28;20030;-87
2022/04/13 07:32:39;;;;;;;22.73;15.48;;;12.80;92.00;;;;;;4976795;28;20035;-87
2022/04/13 07:35:06;;;;;;;25.88;15.52;;;13.00;91.60;;;;;;4970449;28;20446;-85
2022/04/13 07:37:32;;;;;;;23.58;15.05;;;13.20;91.40;;;;;;4954756;28;20046;-85
2022/04/13 07:40:01;;;;;;;19.60;12.60;;;13.40;91.00;;;;;;4975341;28;20027;-85
2022/04/13 07:42:27;;;;;;;18.73;12.77;;;13.60;90.60;;;;;;4956182;28;20110;-85
2022/04/13 07:44:56;;;;;;;24.02;14.57;;;13.70;90.30;;;;;;4968060;28;20112;-85
2022/04/13 07:47:22;;;;;;;24.67;14.02;;;13.80;90.10;;;;;;4975450;28;20043;-86
2022/04/13 07:49:49;;;;;;;17.33;11.70;;;13.90;89.80;;;;;;4959403;28;20053;-85
2022/04/13 07:52:16;;;;;;;20.40;12.95;;;14.10;89.50;;;;;;4954852;28;20134;-86
2022/04/13 07:54:44;;;;;;;17.58;12.20;;;14.20;88.90;;;;;;4939512;29;20043;-84
2022/04/13 07:57:10;;;;;;;19.38;12.70;;;14.30;88.50;;;;;;4956694;28;20032;-84
2022/04/13 07:59:36;;;;;;;18.13;11.25;;;14.50;87.80;;;;;;4952181;28;20485;-84
2022/04/13 08:02:02;;;;;;;20.33;12.45;;;14.60;87.20;;;;;;4957097;28;20034;-85
2022/04/13 08:04:28;;;;;;;17.95;12.38;;;14.70;87.10;;;;;;4982638;28;20031;-84
2022/04/13 08:06:54;;;;;;;17.02;11.77;;;14.90;86.60;;;;;;4984310;28;20423;-83
2022/04/13 08:09:20;;;;;;;20.50;11.10;;;15.00;86.60;;;;;;4959485;28;20034;-83
2022/04/13 08:11:46;;;;;;;15.52;10.75;;;15.10;85.70;;;;;;4969510;28;20443;-85
2022/04/13 08:14:12;;;;;;;14.50;9.98;;;15.20;85.70;;;;;;4955217;28;20061;-81
2022/04/13 08:16:38;;;;;;;17.92;11.48;;;15.30;85.00;;;;;;4945896;28;20039;-81
2022/04/13 08:19:05;;;;;;;15.07;10.30;;;15.40;84.10;;;;;;4958378;28;20035;-82
2022/04/13 08:21:31;;;;;;;15.63;10.23;;;15.50;83.70;;;;;;4941526;28;20073;-81
2022/04/13 08:23:57;;;;;;;15.57;10.18;;;15.50;82.70;;;;;;4968245;28;20051;-81
2022/04/13 08:26:22;;;;;;;15.30;11.32;;;15.60;82.20;;;;;;4958442;28;20077;-81
2022/04/13 08:28:48;;;;;;;18.35;13.07;;;15.70;82.10;;;;;;4959001;28;20046;-81
2022/04/13 08:31:18;;;;;;;16.48;11.07;;;15.70;82.10;;;;;;4970298;28;20066;-81
2022/04/13 08:33:44;;;;;;;10.43;7.93;;;15.80;82.30;;;;;;4955115;28;20043;-81
2022/04/13 08:36:09;;;;;;;10.80;7.47;;;16.00;80.70;;;;;;4939779;29;20050;-81
2022/04/13 08:38:36;;;;;;;11.75;7.25;;;16.00;79.00;;;;;;4956034;28;20075;-83
2022/04/13 08:41:28;;;;;;;9.48;6.32;;;16.20;78.60;;;;;;4960911;28;20045;-83
2022/04/13 08:44:04;;;;;;;9.95;5.40;;;16.30;77.60;;;;;;4971713;28;20163;-83
2022/04/13 08:46:31;;;;;;;10.77;5.28;;;16.30;75.00;;;;;;4940396;29;20038;-83
2022/04/13 08:48:59;;;;;;;8.35;5.30;;;16.40;75.20;;;;;;4957791;28;20047;-83
2022/04/13 08:51:26;;;;;;;9.57;6.68;;;16.50;74.80;;;;;;4957527;29;20043;-83
2022/04/13 08:54:05;;;;;;;8.10;5.30;;;16.60;74.90;;;;;;4940588;29;20490;-83
2022/04/13 08:56:34;;;;;;;9.05;5.40;;;16.80;74.10;;;;;;4958043;28;20042;-83
2022/04/13 08:59:26;;;;;;;8.10;5.00;;;16.80;71.80;;;;;;4954752;28;20463;-83
2022/04/13 09:02:02;;;;;;;6.95;4.15;;;16.90;70.30;;;;;;4960002;28;20038;-84
2022/04/13 09:04:30;;;;;;;7.07;4.70;;;17.00;70.50;;;;;;4971445;28;20039;-81
2022/04/13 09:07:00;;;;;;;4.15;3.33;;;17.10;65.30;;;;;;4966265;28;20046;-81
2022/04/13 09:09:39;;;;;;;5.50;3.40;;;17.20;65.60;;;;;;4965851;28;20126;-81
2022/04/13 09:12:08;;;;;;;4.87;3.70;;;17.30;65.40;;;;;;4969383;28;20035;-80
2022/04/13 09:14:37;;;;;;;7.35;4.32;;;17.40;63.10;;;;;;4955545;28;20049;-84
2022/04/13 09:17:04;;;;;;;6.28;3.58;;;17.50;64.50;;;;;;4977261;28;20130;-84
2022/04/13 09:19:32;;;;;;;7.10;4.40;;;17.60;65.40;;;;;;4959053;28;20519;-84
2022/04/13 09:21:58;;;;;;;9.02;5.65;;;17.80;66.30;;;;;;4960349;28;20053;-84
2022/04/13 09:24:29;;;;;;;11.85;5.50;;;18.00;66.40;;;;;;4977026;28;20039;-84
2022/04/13 09:26:55;;;;;;;;;;;18.00;66.00;;;;;;4978350;28;20042;-84
2022/04/13 09:29:20;;;;;;;5.95;4.32;;;18.20;66.20;;;;;;4977347;28;19952;-84
2022/04/13 09:31:46;;;;;;;5.80;4.20;;;18.30;64.10;;;;;;4977063;28;20031;-84
2022/04/13 09:34:12;;;;;;;6.03;4.25;;;18.40;64.30;;;;;;4976606;28;20134;-84
2022/04/13 09:36:38;;;;;;;8.65;4.68;;;18.50;63.90;;;;;;4976925;28;20098;-84
2022/04/13 09:39:03;;;;;;;4.50;3.47;;;18.70;63.20;;;;;;4976835;28;20045;-84
2022/04/13 09:41:34;;;;;;;5.57;3.60;;;18.80;62.40;;;;;;4959863;28;20383;-84
2022/04/13 09:44:01;;;;;;;5.90;3.15;;;18.90;58.50;;;;;;4959588;28;20050;-84
2022/04/13 09:46:30;;;;;;;7.13;3.13;;;19.00;57.70;;;;;;4977073;28;20034;-85
2022/04/13 09:49:16;;;;;;;4.43;2.70;;;19.10;57.30;;;;;;4958773;28;20039;-85
2022/04/13 09:51:46;;;;;;;6.38;2.80;;;19.30;55.80;;;;;;4975880;28;20038;-84
2022/04/13 09:54:12;;;;;;;;;;;19.30;54.70;;;;;;4975564;28;20039;-84
2022/04/13 09:56:43;;;;;;;4.00;2.13;;;19.40;52.50;;;;;;4975998;28;19928;-84
2022/04/13 09:59:10;;;;;;;2.67;2.00;;;19.40;54.20;;;;;;4975816;28;20055;-84
2022/04/13 10:01:36;;;;;;;3.63;1.83;;;19.50;53.20;;;;;;4975679;28;20034;-84
2022/04/13 10:04:03;;;;;;;4.18;2.15;;;19.50;50.40;;;;;;4975718;28;20063;-84
2022/04/13 10:06:33;;;;;;;4.22;2.17;;;19.60;48.20;;;;;;4975968;28;20065;-84
2022/04/13 10:09:08;;;;;;;2.83;1.67;;;19.70;48.70;;;;;;4975764;28;20423;-84
2022/04/13 10:11:34;;;;;;;4.28;1.85;;;19.90;48.90;;;;;;4975671;28;20448;-84
2022/04/13 10:14:05;;;;;;;4.30;1.80;;;20.00;49.70;;;;;;4966635;28;20034;-84
2022/04/13 10:16:35;;;;;;;3.25;1.80;;;20.20;48.90;;;;;;4975071;28;20030;-84
2022/04/13 10:19:02;;;;;;;;;;;20.30;46.80;;;;;;4962268;28;20031;-85
2022/04/13 10:21:40;;;;;;;3.38;1.92;;;20.30;47.20;;;;;;4961719;28;20365;-80
2022/04/13 10:24:09;;;;;;;4.15;2.00;;;20.40;46.50;;;;;;4957999;28;20070;-80
2022/04/13 10:26:35;;;;;;;3.67;2.30;;;20.40;46.00;;;;;;4966361;28;20039;-80
2022/04/13 10:29:00;;;;;;;2.80;2.05;;;20.50;44.60;;;;;;4969254;28;20105;-80
2022/04/13 10:31:26;;;;;;;4.15;2.38;;;20.30;44.30;;;;;;4968668;28;20038;-81
2022/04/13 10:33:52;;;;;;;3.85;2.60;;;20.30;45.10;;;;;;4961900;28;20027;-80
2022/04/13 10:36:19;;;;;;;12.05;2.80;;;20.30;44.70;;;;;;4969377;28;20523;-80
2022/04/13 10:38:45;;;;;;;5.43;3.30;;;20.20;45.40;;;;;;4965220;28;20035;-80
2022/04/13 10:41:18;;;;;;;5.75;4.13;;;20.20;46.60;;;;;;4963540;28;20044;-81
2022/04/13 10:43:52;;;;;;;11.07;5.15;;;20.20;46.30;;;;;;4945768;28;20034;-81
2022/04/13 10:46:20;;;;;;;11.15;5.05;;;20.20;47.30;;;;;;4960005;28;20134;-80
2022/04/13 10:48:50;;;;;;;7.53;4.72;;;20.10;47.00;;;;;;4948639;28;20519;-80
2022/04/13 10:51:23;;;;;;;9.90;5.40;;;20.10;47.80;;;;;;4948289;28;20126;-79
2022/04/13 10:54:02;;;;;;;8.20;5.05;;;20.00;46.30;;;;;;4962763;28;20039;-79
2022/04/13 10:56:31;;;;;;;8.50;5.18;;;20.00;47.20;;;;;;4960558;28;20492;-80
2022/04/13 10:59:15;;;;;;;9.27;4.30;;;19.90;46.10;;;;;;4967002;28;20044;-78
2022/04/13 11:01:46;;;;;;;8.85;5.15;;;19.80;47.40;;;;;;4963358;28;20035;-80
2022/04/13 11:04:12;;;;;;;12.15;5.68;;;19.70;47.40;;;;;;4951420;28;20068;-81
2022/04/13 11:06:39;;;;;;;12.25;5.45;;;19.70;47.40;;;;;;4965858;28;20035;-81
2022/04/13 11:09:15;;;;;;;10.32;4.93;;;19.60;46.50;;;;;;4946527;28;20038;-79
2022/04/13 11:11:43;;;;;;;8.48;4.70;;;19.50;46.90;;;;;;4969554;28;20093;-80
2022/04/13 11:14:22;;;;;;;8.57;5.18;;;19.40;44.90;;;;;;4963562;28;20075;-80
2022/04/13 11:16:52;;;;;;;7.60;4.50;;;19.30;45.40;;;;;;4953160;28;20061;-79
2022/04/13 11:19:19;;;;;;;7.60;5.38;;;19.20;47.50;;;;;;4969294;28;20046;-78
2022/04/13 11:21:51;;;;;;;7.18;4.78;;;19.40;46.40;;;;;;4965909;28;20418;-79
2022/04/13 11:24:41;;;;;;;10.55;5.20;;;19.70;48.50;;;;;;4966920;28;20046;-78
2022/04/13 11:27:11;;;;;;;12.88;6.85;;;20.10;45.70;;;;;;4943640;28;20105;-78
2022/04/13 11:29:38;;;;;;;8.90;5.55;;;20.30;44.40;;;;;;4967376;28;20034;-80
2022/04/13 11:32:04;;;;;;;10.80;5.38;;;20.40;46.40;;;;;;4970885;28;20038;-80
2022/04/13 11:34:31;;;;;;;13.50;5.10;;;20.50;46.50;;;;;;4968435;28;20563;-81
2022/04/13 11:37:01;;;;;;;9.90;6.03;;;20.70;46.40;;;;;;4960985;28;20091;-80
2022/04/13 11:39:42;;;;;;;11.43;6.57;;;20.80;46.20;;;;;;4963474;28;20880;-81
2022/04/13 11:42:40;;;;;;;8.35;5.55;;;20.80;45.30;;;;;;4958743;28;20072;-81
2022/04/13 11:45:09;;;;;;;12.40;6.95;;;21.30;46.70;;;;;;4946575;28;20517;-81
2022/04/13 11:47:37;;;;;;;12.37;6.40;;;21.70;45.40;;;;;;4966565;28;20129;-81
2022/04/13 11:50:18;;;;;;;8.98;5.68;;;22.10;43.10;;;;;;4966720;28;20742;-81
2022/04/13 11:52:59;;;;;;;23.52;5.20;;;22.40;43.60;;;;;;4949323;28;20058;-82
2022/04/13 11:55:39;;;;;;;7.80;4.53;;;22.80;41.60;;;;;;4965161;28;20166;-81
2022/04/13 11:58:07;;;;;;;8.40;4.55;;;23.00;40.50;;;;;;4965362;28;20572;-82
2022/04/13 12:00:58;;;;;;;7.15;3.97;;;23.10;39.80;;;;;;4962513;28;20078;-80
2022/04/13 12:03:24;;;;;;;16.40;5.07;;;23.40;40.50;;;;;;4956575;28;20031;-80
2022/04/13 12:05:53;;;;;;;6.47;3.80;;;23.70;39.80;;;;;;4969191;28;20054;-79
2022/04/13 12:08:22;;;;;;;7.20;3.47;;;23.80;37.90;;;;;;4972187;28;20035;-80
2022/04/13 12:10:48;;;;;;;6.30;3.03;;;23.80;37.30;;;;;;4955501;28;20039;-79
2022/04/13 12:13:14;;;;;;;4.22;2.92;;;23.80;37.70;;;;;;4968053;28;20039;-81
2022/04/13 12:15:45;;;;;;;4.50;2.47;;;23.70;36.10;;;;;;4962368;28;20045;-82
2022/04/13 12:18:12;;;;;;;7.80;2.60;;;23.70;35.70;;;;;;4971883;28;20043;-82
2022/04/13 12:20:39;;;;;;;9.00;3.55;;;23.80;36.60;;;;;;4970093;28;20383;-82
2022/04/13 12:23:20;;;;;;;8.52;4.72;;;23.80;36.10;;;;;;4970503;28;20514;-82
2022/04/13 12:25:54;;;;;;;7.00;3.75;;;23.70;38.70;;;;;;4956052;28;20047;-82
2022/04/13 12:28:22;;;;;;;7.40;3.20;;;23.70;37.20;;;;;;4963109;28;20083;-82
2022/04/13 12:31:11;;;;;;;8.00;3.20;;;23.70;37.00;;;;;;4959527;28;20495;-84
2022/04/13 12:33:39;;;;;;;5.72;2.90;;;23.50;36.60;;;;;;4966557;28;20110;-82
2022/04/13 12:36:14;;;;;;;6.93;3.90;;;23.50;36.00;;;;;;4950778;28;20042;-81
2022/04/13 12:38:47;;;;;;;6.18;2.60;;;23.50;36.30;;;;;;4964629;28;20031;-85
2022/04/13 12:41:18;;;;;;;4.85;1.73;;;23.70;35.70;;;;;;4963646;28;20055;-82
2022/04/13 12:43:56;;;;;;;6.80;2.15;;;23.90;33.20;;;;;;4964283;28;20067;-83
2022/04/13 12:46:23;;;;;;;5.22;2.00;;;24.10;33.50;;;;;;4971427;28;20489;-84
2022/04/13 12:49:00;;;;;;;4.05;1.70;;;24.20;33.20;;;;;;4961850;28;20039;-84
2022/04/13 12:51:31;;;;;;;5.85;2.15;;;24.30;31.90;;;;;;4958914;28;20126;-84
2022/04/13 12:53:59;;;;;;;2.30;1.40;;;24.50;30.70;;;;;;4959498;28;20038;-81